Time;durP1;ratioP1;P1;durP2;ratioP2;P2;SDS_P1;SDS_P2;PMS_P1;PMS_P2;Temp;Humidity;BMP_temperature;BMP_pressure;BME280_temperature;BME280_humidity;BME280_pressure;Samples;Min_cycle;Max_cycle;Signal;HPM_P1;HPM_P2
2022/06/10 00:01:57;;;;;;;1.00;0.95;;;21.60;62.10;;;;;;5080445;28;20032;-48
2022/06/10 00:04:23;;;;;;;0.93;0.93;;;21.60;62.00;;;;;;5079591;28;20036;-49
2022/06/10 00:06:50;;;;;;;1.08;0.93;;;21.50;62.30;;;;;;5080517;28;20016;-47
2022/06/10 00:09:16;;;;;;;0.90;0.90;;;21.50;62.60;;;;;;5080955;28;20056;-51
2022/06/10 00:11:42;;;;;;;1.33;1.10;;;21.50;62.60;;;;;;5080771;28;20037;-47
2022/06/10 00:14:08;;;;;;;1.40;0.93;;;21.50;62.90;;;;;;5078484;28;20024;-49
2022/06/10 00:16:34;;;;;;;0.60;0.60;;;21.50;62.80;;;;;;5080114;28;20028;-47
2022/06/10 00:19:00;;;;;;;1.23;1.00;;;21.50;62.90;;;;;;5079085;28;20028;-50
2022/06/10 00:21:26;;;;;;;1.10;1.00;;;21.40;62.50;;;;;;5074234;28;20035;-49
2022/06/10 00:23:53;;;;;;;0.85;0.75;;;21.50;62.70;;;;;;5081746;28;20095;-48
2022/06/10 00:26:19;;;;;;;1.30;0.80;;;21.50;62.70;;;;;;5074098;28;20028;-47
2022/06/10 00:28:45;;;;;;;1.77;0.77;;;21.40;62.50;;;;;;5074677;28;20074;-51
2022/06/10 00:31:13;;;;;;;0.80;0.80;;;21.40;62.30;;;;;;5077458;28;20042;-50
2022/06/10 00:33:40;;;;;;;;;;;21.40;61.60;;;;;;5058296;28;20040;-48
2022/06/10 00:36:07;;;;;;;0.87;0.80;;;21.40;61.20;;;;;;5080582;28;19916;-49
2022/06/10 00:38:33;;;;;;;0.70;0.70;;;21.30;61.10;;;;;;5078535;28;20281;-51
2022/06/10 00:41:00;;;;;;;0.70;0.70;;;21.30;60.40;;;;;;5077449;28;20028;-48
2022/06/10 00:43:28;;;;;;;1.02;0.98;;;21.30;61.40;;;;;;5078459;28;20056;-49
2022/06/10 00:46:17;;;;;;;1.38;1.27;;;21.30;60.90;;;;;;5079434;28;20059;-53
2022/06/10 00:49:00;;;;;;;0.88;0.70;;;21.20;60.80;;;;;;5062802;28;20059;-51
2022/06/10 00:51:52;;;;;;;0.80;0.80;;;21.20;60.60;;;;;;5063708;28;20044;-50
2022/06/10 00:54:37;;;;;;;0.60;0.60;;;21.20;60.60;;;;;;5079181;28;20032;-49
2022/06/10 00:57:27;;;;;;;1.45;0.90;;;21.20;61.30;;;;;;5060950;28;20062;-49
2022/06/10 01:00:06;;;;;;;0.77;0.77;;;21.10;61.90;;;;;;5061807;28;20025;-51
2022/06/10 01:02:33;;;;;;;0.60;0.60;;;21.10;62.10;;;;;;5061375;28;20028;-51
2022/06/10 01:05:03;;;;;;;0.80;0.80;;;21.10;62.00;;;;;;5080106;28;20027;-52
2022/06/10 01:07:31;;;;;;;0.95;0.70;;;21.10;62.10;;;;;;5078036;28;20059;-50
2022/06/10 01:09:58;;;;;;;0.70;0.70;;;21.10;62.10;;;;;;5046023;28;20025;-49
2022/06/10 01:12:36;;;;;;;0.70;0.70;;;21.00;62.20;;;;;;5080540;28;20092;-51
2022/06/10 01:15:24;;;;;;;0.80;0.80;;;21.00;62.10;;;;;;5078284;28;20604;-51
2022/06/10 01:18:10;;;;;;;1.40;0.70;;;21.00;61.80;;;;;;5080379;28;20054;-48
2022/06/10 01:20:58;;;;;;;1.05;0.95;;;21.00;60.80;;;;;;5078098;28;20798;-48
2022/06/10 01:23:48;;;;;;;1.10;0.60;;;21.00;60.60;;;;;;5059954;28;20057;-51
2022/06/10 01:29:34;;;;;;;;;;;20.90;60.60;;;;;;5064944;28;20063;-50
2022/06/10 01:32:24;;;;;;;0.70;0.60;;;20.90;60.70;;;;;;5061572;28;19918;-50
2022/06/10 01:35:00;;;;;;;0.80;0.60;;;20.80;60.30;;;;;;5056207;28;20101;-50
2022/06/10 01:37:53;;;;;;;1.00;0.65;;;20.80;60.70;;;;;;5045593;28;20501;-51
2022/06/10 01:40:24;;;;;;;0.63;0.63;;;20.80;61.10;;;;;;5043043;28;20063;-49
2022/06/10 01:42:58;;;;;;;0.65;0.65;;;20.80;61.90;;;;;;5066361;28;20032;-48
2022/06/10 01:45:52;;;;;;;0.73;0.70;;;20.70;62.40;;;;;;5083347;28;20029;-50
2022/06/10 01:48:20;;;;;;;0.50;0.50;;;20.70;61.90;;;;;;5068768;28;20035;-49
2022/06/10 01:50:52;;;;;;;0.77;0.77;;;20.70;61.80;;;;;;5082464;28;20744;-50
2022/06/10 01:53:45;;;;;;;0.65;0.60;;;20.70;61.60;;;;;;5064943;28;20050;-52
2022/06/10 01:56:14;;;;;;;0.82;0.50;;;20.60;61.50;;;;;;5063181;28;20797;-49
2022/06/10 01:58:51;;;;;;;0.60;0.60;;;20.60;60.60;;;;;;5083437;28;20025;-48
2022/06/10 02:01:32;;;;;;;0.80;0.70;;;20.60;60.60;;;;;;5066218;28;20088;-48
2022/06/10 02:04:14;;;;;;;0.93;0.80;;;20.60;60.50;;;;;;5048729;28;20090;-49
2022/06/10 02:06:51;;;;;;;0.70;0.50;;;20.50;60.60;;;;;;5065604;28;20058;-48
2022/06/10 02:09:22;;;;;;;1.05;0.73;;;20.60;62.50;;;;;;5062322;28;20449;-50
2022/06/10 02:11:51;;;;;;;0.50;0.50;;;20.60;63.30;;;;;;5063235;28;20042;-53
2022/06/10 02:14:21;;;;;;;0.80;0.60;;;20.60;63.50;;;;;;5065166;28;20039;-50
2022/06/10 02:16:48;;;;;;;1.45;0.52;;;20.60;63.60;;;;;;5046912;28;20033;-49
2022/06/10 02:19:20;;;;;;;0.70;0.70;;;20.60;63.60;;;;;;5066832;28;20029;-48
2022/06/10 02:22:06;;;;;;;0.50;0.50;;;20.60;63.50;;;;;;5063508;28;20042;-49
2022/06/10 02:24:37;;;;;;;0.50;0.50;;;20.60;63.50;;;;;;5063786;28;20505;-52
2022/06/10 02:27:16;;;;;;;0.50;0.50;;;20.60;63.50;;;;;;5065336;28;20028;-52
2022/06/10 02:30:00;;;;;;;1.35;0.60;;;20.60;63.60;;;;;;5081502;28;20118;-51
2022/06/10 02:32:27;;;;;;;1.38;0.70;;;20.60;63.80;;;;;;5065602;28;20671;-50
2022/06/10 02:34:54;;;;;;;0.70;0.70;;;20.60;63.80;;;;;;5064821;28;20029;-51
2022/06/10 02:37:20;;;;;;;0.75;0.60;;;20.60;63.90;;;;;;5080813;28;20024;-52
2022/06/10 02:40:17;;;;;;;0.50;0.50;;;20.60;64.00;;;;;;5076556;28;20025;-49
2022/06/10 02:43:09;;;;;;;0.60;0.60;;;20.70;64.10;;;;;;5053115;28;20033;-49
2022/06/10 02:45:55;;;;;;;0.50;0.50;;;20.70;64.20;;;;;;5063370;28;20028;-50
2022/06/10 02:48:52;;;;;;;1.58;0.68;;;20.70;64.40;;;;;;5063754;28;20032;-47
2022/06/10 02:51:19;;;;;;;4.03;0.68;;;20.70;64.70;;;;;;5067290;28;20036;-53
2022/06/10 02:53:45;;;;;;;0.55;0.50;;;20.70;65.50;;;;;;5078433;28;20100;-50
2022/06/10 02:56:25;;;;;;;1.03;0.60;;;20.80;65.80;;;;;;5080417;28;20040;-53
2022/06/10 03:01:51;;;;;;;0.77;0.65;;;20.80;65.80;;;;;;5054249;28;20035;-49
2022/06/10 03:04:49;;;;;;;1.00;0.52;;;20.80;65.70;;;;;;5080706;28;20119;-53
2022/06/10 03:07:27;;;;;;;0.60;0.60;;;20.90;65.70;;;;;;5082356;28;20066;-49
2022/06/10 03:10:06;;;;;;;0.70;0.60;;;20.90;65.70;;;;;;5080892;28;20052;-49
2022/06/10 03:12:52;;;;;;;0.82;0.70;;;20.90;65.70;;;;;;5062839;28;20147;-51
2022/06/10 03:15:40;;;;;;;0.60;0.52;;;20.90;65.60;;;;;;5066044;28;20039;-53
2022/06/10 03:18:38;;;;;;;1.15;0.70;;;20.90;65.70;;;;;;5079902;28;20070;-50
2022/06/10 03:21:13;;;;;;;0.75;0.73;;;20.90;65.80;;;;;;5061350;28;20060;-49
2022/06/10 03:24:07;;;;;;;0.55;0.52;;;21.00;65.80;;;;;;5062980;28;20044;-50
2022/06/10 03:26:42;;;;;;;0.75;0.52;;;21.00;65.90;;;;;;5059016;28;20039;-48
2022/06/10 03:29:17;;;;;;;1.15;0.70;;;21.00;65.80;;;;;;5063855;28;20111;-49
2022/06/10 03:31:46;;;;;;;0.68;0.65;;;21.00;65.70;;;;;;5062442;28;20052;-48
2022/06/10 03:34:30;;;;;;;0.80;0.80;;;21.00;65.60;;;;;;5061261;28;20040;-48
2022/06/10 03:36:59;;;;;;;0.50;0.50;;;21.00;65.50;;;;;;5051189;28;20032;-48
2022/06/10 03:39:25;;;;;;;0.70;0.63;;;21.10;65.40;;;;;;5063144;28;20032;-48
2022/06/10 03:42:04;;;;;;;1.63;0.70;;;21.10;65.30;;;;;;5080606;28;20020;-49
2022/06/10 03:44:30;;;;;;;0.80;0.80;;;21.10;65.20;;;;;;5080786;28;20035;-50
2022/06/10 03:46:57;;;;;;;0.60;0.60;;;21.10;65.10;;;;;;5049614;28;20021;-51
2022/06/10 03:49:41;;;;;;;2.25;0.75;;;21.10;65.00;;;;;;5081664;28;20302;-49
2022/06/10 03:52:08;;;;;;;3.15;0.70;;;21.10;65.10;;;;;;5079364;28;20029;-48
2022/06/10 03:54:34;;;;;;;;;;;21.20;65.20;;;;;;5063977;28;20055;-49
2022/06/10 03:57:00;;;;;;;0.60;0.60;;;21.20;65.30;;;;;;5080730;28;19912;-48
2022/06/10 03:59:26;;;;;;;0.70;0.70;;;21.20;65.10;;;;;;5080418;28;20028;-50
2022/06/10 04:01:52;;;;;;;1.00;0.60;;;21.20;64.90;;;;;;5080450;28;20397;-49
2022/06/10 04:04:19;;;;;;;1.77;0.90;;;21.20;64.80;;;;;;5079033;28;20025;-51
2022/06/10 04:06:45;;;;;;;0.80;0.80;;;21.20;64.80;;;;;;5079164;28;20036;-52
2022/06/10 04:09:32;;;;;;;1.30;0.93;;;21.20;64.80;;;;;;5080812;28;20035;-53
2022/06/10 04:11:59;;;;;;;2.10;0.70;;;21.20;64.80;;;;;;5014463;28;20136;-50
2022/06/10 04:14:25;;;;;;;0.80;0.60;;;21.20;64.70;;;;;;5015303;28;20045;-53
2022/06/10 04:16:51;;;;;;;0.70;0.70;;;21.30;64.70;;;;;;5011077;28;20033;-52
2022/06/10 04:19:17;;;;;;;0.85;0.82;;;21.30;64.70;;;;;;5011621;28;20058;-53
2022/06/10 04:21:44;;;;;;;0.80;0.80;;;21.30;64.60;;;;;;5014062;28;20022;-49
2022/06/10 04:24:10;;;;;;;0.88;0.88;;;21.30;64.40;;;;;;5013223;28;20045;-49
2022/06/10 04:26:36;;;;;;;0.75;0.70;;;21.30;64.40;;;;;;5007372;28;20026;-50
2022/06/10 04:29:02;;;;;;;0.70;0.70;;;21.30;64.40;;;;;;5003712;28;20045;-52
2022/06/10 04:31:28;;;;;;;0.60;0.60;;;21.30;64.40;;;;;;5008740;28;20038;-48
2022/06/10 04:33:55;;;;;;;0.80;0.80;;;21.30;64.20;;;;;;5012637;28;20098;-48
2022/06/10 04:36:21;;;;;;;0.80;0.80;;;21.30;64.20;;;;;;5014916;28;20225;-50
2022/06/10 04:38:47;;;;;;;1.30;0.82;;;21.40;64.20;;;;;;5010766;28;20033;-50
2022/06/10 04:41:13;;;;;;;0.88;0.88;;;21.40;64.10;;;;;;5011104;28;20118;-54
2022/06/10 04:43:39;;;;;;;0.68;0.68;;;21.30;64.00;;;;;;4997497;28;20036;-48
2022/06/10 04:46:07;;;;;;;1.40;0.80;;;21.40;63.90;;;;;;5007036;28;20038;-53
2022/06/10 04:48:32;;;;;;;;;;;21.40;63.90;;;;;;5031024;28;20106;-48
2022/06/10 04:50:59;;;;;;;1.17;0.90;;;21.40;63.90;;;;;;5080350;28;19924;-47
2022/06/10 04:53:25;;;;;;;0.80;0.80;;;21.40;63.90;;;;;;5079145;28;20088;-48
2022/06/10 04:55:51;;;;;;;0.90;0.90;;;21.40;63.90;;;;;;5077840;28;20560;-48
2022/06/10 04:58:17;;;;;;;1.03;0.90;;;21.40;63.90;;;;;;5080367;28;20028;-52
2022/06/10 05:00:48;;;;;;;1.38;0.88;;;21.40;63.80;;;;;;5078135;28;20106;-48
2022/06/10 05:03:15;;;;;;;2.25;1.10;;;21.40;63.80;;;;;;5078200;28;20097;-49
2022/06/10 05:05:41;;;;;;;1.67;0.80;;;21.40;63.80;;;;;;5078994;28;20028;-50
2022/06/10 05:08:08;;;;;;;1.33;1.03;;;21.40;63.70;;;;;;5079965;28;20021;-51
2022/06/10 05:10:34;;;;;;;1.13;0.90;;;21.40;63.60;;;;;;5090846;28;20055;-48
2022/06/10 05:13:00;;;;;;;0.73;0.70;;;21.40;63.60;;;;;;5088147;28;20127;-49
2022/06/10 05:15:28;;;;;;;0.77;0.70;;;21.50;63.70;;;;;;5069817;28;20052;-50
2022/06/10 05:17:56;;;;;;;1.83;1.00;;;21.50;63.60;;;;;;5093076;28;20036;-50
2022/06/10 05:20:24;;;;;;;2.08;0.90;;;21.50;63.60;;;;;;5083890;28;20507;-50
2022/06/10 05:22:51;;;;;;;1.90;0.77;;;21.50;63.50;;;;;;5078822;28;20029;-49
2022/06/10 05:25:17;;;;;;;1.20;1.10;;;21.50;63.50;;;;;;5078328;28;20031;-51
2022/06/10 05:27:43;;;;;;;1.40;0.98;;;21.50;63.40;;;;;;5085931;28;20021;-52
2022/06/10 05:30:15;;;;;;;0.80;0.80;;;21.50;63.40;;;;;;5082619;28;20051;-49
2022/06/10 05:32:41;;;;;;;1.65;0.90;;;21.50;63.40;;;;;;5079143;28;20349;-50
2022/06/10 05:35:08;;;;;;;1.00;0.90;;;21.50;63.40;;;;;;5068092;28;20036;-51
2022/06/10 05:37:34;;;;;;;1.00;0.90;;;21.50;63.50;;;;;;5085808;28;20052;-50
2022/06/10 05:40:00;;;;;;;2.05;0.90;;;21.50;63.40;;;;;;5087348;28;20024;-50
2022/06/10 05:42:26;;;;;;;1.17;0.90;;;21.50;63.40;;;;;;5094099;28;20445;-50
2022/06/10 05:44:52;;;;;;;1.90;0.88;;;21.50;63.40;;;;;;5084279;28;20029;-51
2022/06/10 05:47:24;;;;;;;1.60;0.80;;;21.50;63.40;;;;;;5093652;28;20025;-49
2022/06/10 05:49:52;;;;;;;1.17;0.90;;;21.50;63.10;;;;;;5075551;28;20033;-47
2022/06/10 05:52:19;;;;;;;0.90;0.90;;;21.50;63.10;;;;;;5076123;28;20029;-50
2022/06/10 05:54:45;;;;;;;;;;;21.50;63.20;;;;;;5088559;28;20016;-52
2022/06/10 05:57:12;;;;;;;0.70;0.70;;;21.50;63.20;;;;;;5087264;28;19909;-49
2022/06/10 05:59:38;;;;;;;1.00;1.00;;;21.50;63.10;;;;;;5076793;28;20027;-53
2022/06/10 06:02:06;;;;;;;1.15;1.05;;;21.50;63.20;;;;;;5083080;28;20039;-49
2022/06/10 06:04:32;;;;;;;2.00;1.00;;;21.50;63.20;;;;;;5071957;28;20031;-52
2022/06/10 06:06:58;;;;;;;0.82;0.80;;;21.50;63.20;;;;;;5082926;28;20036;-51
2022/06/10 06:09:24;;;;;;;1.95;1.17;;;21.50;63.10;;;;;;5080119;28;20024;-48
2022/06/10 06:11:51;;;;;;;1.35;1.02;;;21.50;63.20;;;;;;5092482;28;20059;-48
2022/06/10 06:14:18;;;;;;;0.98;0.90;;;21.50;63.10;;;;;;5081064;28;20020;-49
2022/06/10 06:16:54;;;;;;;1.17;1.08;;;21.50;63.10;;;;;;5086303;28;20099;-51
2022/06/10 06:19:20;;;;;;;1.65;1.10;;;21.50;63.10;;;;;;5073107;28;20075;-48
2022/06/10 06:21:46;;;;;;;1.47;1.00;;;21.50;63.30;;;;;;5077460;28;20070;-49
2022/06/10 06:24:13;;;;;;;1.55;1.00;;;21.50;63.40;;;;;;5078576;28;20445;-49
2022/06/10 06:26:39;;;;;;;1.00;0.98;;;21.50;63.50;;;;;;5083489;28;20028;-49
2022/06/10 06:29:05;;;;;;;1.55;1.05;;;21.60;63.70;;;;;;5082827;28;20036;-47
2022/06/10 06:31:31;;;;;;;0.75;0.75;;;21.60;63.70;;;;;;5099929;28;20040;-50
2022/06/10 06:33:57;;;;;;;1.05;0.88;;;21.50;63.60;;;;;;5080527;28;20553;-47
2022/06/10 06:36:24;;;;;;;0.85;0.85;;;21.50;63.70;;;;;;5086616;28;20040;-47
2022/06/10 06:38:50;;;;;;;;;;;21.60;63.70;;;;;;5057241;28;20048;-48
2022/06/10 06:41:17;;;;;;;1.20;0.98;;;21.50;63.80;;;;;;5094159;28;19939;-52
2022/06/10 06:43:43;;;;;;;1.40;1.10;;;21.50;63.80;;;;;;5093786;28;20036;-49
2022/06/10 06:46:11;;;;;;;1.17;1.00;;;21.50;63.80;;;;;;5098303;28;20042;-48
2022/06/10 06:48:37;;;;;;;1.45;1.00;;;21.50;63.80;;;;;;5067142;28;20016;-53
2022/06/10 06:51:03;;;;;;;1.13;1.02;;;21.50;63.60;;;;;;5089880;28;20041;-50
2022/06/10 06:53:29;;;;;;;1.10;0.88;;;21.60;63.60;;;;;;5086883;28;20024;-48
2022/06/10 06:55:56;;;;;;;1.15;0.98;;;21.50;63.50;;;;;;5078155;28;20020;-52
2022/06/10 06:58:22;;;;;;;1.20;0.93;;;21.50;63.40;;;;;;5090353;28;20021;-51
2022/06/10 07:00:49;;;;;;;1.70;1.25;;;21.50;63.40;;;;;;5079215;28;20056;-52
2022/06/10 07:03:15;;;;;;;1.58;1.20;;;21.50;63.40;;;;;;5076582;28;20031;-47
2022/06/10 07:05:42;;;;;;;0.95;0.88;;;21.50;63.70;;;;;;5103034;28;20039;-46
2022/06/10 07:08:09;;;;;;;0.95;0.85;;;21.50;63.50;;;;;;5092375;28;20039;-51
2022/06/10 07:10:35;;;;;;;1.90;1.17;;;21.50;63.60;;;;;;5070634;28;20037;-52
2022/06/10 07:13:02;;;;;;;1.80;0.90;;;21.50;63.60;;;;;;5081691;28;20127;-48
2022/06/10 07:15:28;;;;;;;1.33;1.00;;;21.50;63.70;;;;;;5084455;28;20043;-49
2022/06/10 07:17:54;;;;;;;1.00;0.90;;;21.50;63.60;;;;;;5083616;28;20062;-48
2022/06/10 07:20:25;;;;;;;1.25;0.90;;;21.50;63.70;;;;;;5099485;28;20028;-49
2022/06/10 07:22:51;;;;;;;1.08;0.98;;;21.50;63.60;;;;;;5101563;28;20099;-49
2022/06/10 07:25:18;;;;;;;2.40;0.98;;;21.50;63.80;;;;;;5104146;28;20035;-48
2022/06/10 07:27:44;;;;;;;2.90;0.73;;;21.50;63.90;;;;;;5085978;28;20025;-48
2022/06/10 07:30:12;;;;;;;2.42;1.13;;;21.50;63.80;;;;;;5083280;28;20644;-48
2022/06/10 07:32:39;;;;;;;1.90;1.13;;;21.50;63.80;;;;;;5049704;28;20040;-47
2022/06/10 07:35:05;;;;;;;2.10;1.10;;;21.50;64.10;;;;;;5087649;28;20032;-50
2022/06/10 07:37:32;;;;;;;3.50;1.08;;;21.50;64.30;;;;;;5086391;28;20783;-49
2022/06/10 07:39:58;;;;;;;1.13;0.90;;;21.50;64.20;;;;;;5081516;28;20024;-55
2022/06/10 07:42:24;;;;;;;1.70;1.17;;;21.50;64.20;;;;;;5073243;28;20032;-51
2022/06/10 07:44:50;;;;;;;2.53;1.02;;;21.50;64.20;;;;;;5055100;28;20112;-52
2022/06/10 07:47:16;;;;;;;2.85;1.02;;;21.50;64.20;;;;;;5065213;28;20049;-51
2022/06/10 07:49:43;;;;;;;1.80;1.08;;;21.50;64.20;;;;;;5082281;28;20021;-58
2022/06/10 07:52:09;;;;;;;1.05;0.95;;;21.50;63.90;;;;;;5101673;28;20027;-48
2022/06/10 07:54:36;;;;;;;1.63;1.30;;;21.50;63.70;;;;;;5091560;28;20039;-52
2022/06/10 07:57:03;;;;;;;2.92;1.30;;;21.50;64.30;;;;;;5071603;28;20040;-53
2022/06/10 07:59:29;;;;;;;;;;;21.50;64.20;;;;;;5075059;28;20021;-52
2022/06/10 08:01:55;;;;;;;1.30;1.00;;;21.50;64.20;;;;;;5073816;28;19932;-50
2022/06/10 08:04:21;;;;;;;1.00;1.00;;;21.50;64.10;;;;;;5068523;28;20033;-49
2022/06/10 08:06:48;;;;;;;0.95;0.88;;;21.50;63.90;;;;;;5103665;28;20028;-54
2022/06/10 08:09:15;;;;;;;1.73;0.80;;;21.50;63.90;;;;;;5090375;28;20044;-57
2022/06/10 08:11:56;;;;;;;1.25;1.00;;;21.50;63.90;;;;;;5093781;28;20048;-56
2022/06/10 08:14:22;;;;;;;1.15;1.05;;;21.50;63.60;;;;;;5082277;28;20070;-56
2022/06/10 08:16:49;;;;;;;1.23;0.95;;;21.50;63.50;;;;;;5076110;28;20116;-55
2022/06/10 08:19:15;;;;;;;2.30;0.90;;;21.50;63.40;;;;;;5058517;28;20028;-57
2022/06/10 08:24:25;;;;;;;1.08;0.98;;;21.50;63.10;;;;;;5082749;28;20122;-57
2022/06/10 08:26:51;;;;;;;1.75;1.00;;;21.40;63.00;;;;;;5064412;28;20036;-56
2022/06/10 08:29:18;;;;;;;1.10;1.00;;;21.40;62.90;;;;;;5082552;28;20020;-57
2022/06/10 08:31:44;;;;;;;1.38;1.17;;;21.40;62.80;;;;;;5082890;28;20037;-57
2022/06/10 08:34:11;;;;;;;0.82;0.82;;;21.40;62.80;;;;;;5081577;28;20032;-57
2022/06/10 08:36:37;;;;;;;1.48;1.00;;;21.40;62.50;;;;;;5082616;28;20044;-57
2022/06/10 08:39:04;;;;;;;2.38;1.17;;;21.40;62.60;;;;;;5085021;28;20020;-57
2022/06/10 08:41:42;;;;;;;1.00;0.90;;;21.40;62.50;;;;;;5070779;28;20055;-57
2022/06/10 08:44:21;;;;;;;1.30;1.00;;;21.40;62.30;;;;;;5082725;28;20261;-57
2022/06/10 08:47:10;;;;;;;1.05;0.90;;;21.40;62.50;;;;;;5082747;28;20521;-57
2022/06/10 08:50:05;;;;;;;1.23;0.98;;;21.40;62.40;;;;;;5082521;28;20058;-57
2022/06/10 08:52:46;;;;;;;1.10;1.00;;;21.40;62.60;;;;;;5085307;28;20062;-57
2022/06/10 08:55:21;;;;;;;2.75;0.93;;;21.30;62.40;;;;;;5086127;28;20032;-57
2022/06/10 08:57:48;;;;;;;3.15;1.10;;;21.40;62.50;;;;;;5068614;28;20111;-57
2022/06/10 09:00:30;;;;;;;1.50;1.35;;;21.40;62.60;;;;;;5086227;28;20028;-57
2022/06/10 09:03:06;;;;;;;1.27;0.90;;;21.30;62.60;;;;;;5068559;28;20546;-55
2022/06/10 09:05:45;;;;;;;1.38;0.93;;;21.30;62.40;;;;;;5086536;28;20123;-57
2022/06/10 09:08:17;;;;;;;2.25;1.00;;;21.30;62.30;;;;;;5077303;28;20039;-56
2022/06/10 09:10:51;;;;;;;1.00;0.90;;;21.30;62.30;;;;;;5085636;28;20393;-57
2022/06/10 09:13:39;;;;;;;1.23;0.90;;;21.30;62.50;;;;;;5065716;28;20111;-57
2022/06/10 09:16:17;;;;;;;1.05;0.95;;;21.30;62.70;;;;;;5084856;28;20028;-57
2022/06/10 09:19:06;;;;;;;1.70;1.00;;;21.30;62.40;;;;;;5086541;28;20032;-55
2022/06/10 09:22:11;;;;;;;0.77;0.77;;;21.30;62.30;;;;;;5086086;28;20036;-57
2022/06/10 09:24:49;;;;;;;1.27;1.00;;;21.20;62.50;;;;;;4984193;28;20113;-57
2022/06/10 09:27:30;;;;;;;1.20;1.00;;;21.20;62.40;;;;;;4968518;28;20031;-56
2022/06/10 09:29:57;;;;;;;2.10;1.10;;;21.20;62.40;;;;;;4980855;28;20043;-55
2022/06/10 09:32:37;;;;;;;1.10;1.00;;;21.20;62.50;;;;;;4995229;28;20061;-57
2022/06/10 09:35:07;;;;;;;2.92;1.20;;;21.20;62.40;;;;;;4968401;28;20030;-57
2022/06/10 09:38:07;;;;;;;1.85;1.05;;;21.20;62.40;;;;;;4984610;28;20039;-56
2022/06/10 09:40:41;;;;;;;1.10;1.00;;;21.20;62.40;;;;;;4982040;28;20395;-60
2022/06/10 09:43:13;;;;;;;1.45;1.05;;;21.20;62.60;;;;;;4969010;28;20122;-55
2022/06/10 09:46:10;;;;;;;1.38;1.15;;;21.10;62.60;;;;;;4981034;28;20062;-57
2022/06/10 09:49:12;;;;;;;1.02;0.98;;;21.10;62.80;;;;;;4978693;28;20062;-56
2022/06/10 09:51:38;;;;;;;1.20;0.90;;;21.10;62.60;;;;;;4962119;28;20043;-57
2022/06/10 09:54:25;;;;;;;0.77;0.77;;;21.10;62.60;;;;;;4984219;28;20026;-57
2022/06/10 09:57:15;;;;;;;1.25;0.80;;;21.10;62.80;;;;;;5065793;28;20060;-57
2022/06/10 09:59:55;;;;;;;1.15;0.88;;;21.10;62.80;;;;;;5044525;28;20026;-55
2022/06/10 10:02:53;;;;;;;1.10;1.00;;;21.10;62.80;;;;;;5052163;28;20202;-56
2022/06/10 10:05:37;;;;;;;1.00;0.85;;;21.00;62.50;;;;;;5060515;28;20033;-58
2022/06/10 10:08:23;;;;;;;1.33;1.02;;;21.00;62.60;;;;;;5065246;28;20033;-58
2022/06/10 10:11:06;;;;;;;1.20;1.00;;;21.00;62.60;;;;;;5064736;28;20467;-57
2022/06/10 10:13:57;;;;;;;1.48;1.10;;;21.00;62.30;;;;;;5065503;28;20029;-58
2022/06/10 10:16:55;;;;;;;1.00;0.90;;;21.00;62.40;;;;;;5064096;28;20067;-57
2022/06/10 10:19:36;;;;;;;2.10;1.40;;;21.00;62.60;;;;;;5059639;28;20026;-57
2022/06/10 10:22:40;;;;;;;1.13;0.90;;;21.00;62.60;;;;;;5067356;28;20039;-58
2022/06/10 10:25:11;;;;;;;1.20;0.95;;;21.00;62.60;;;;;;5085291;28;20071;-58
2022/06/10 10:27:37;;;;;;;1.25;0.90;;;20.90;62.50;;;;;;5082584;28;20024;-57
2022/06/10 10:30:21;;;;;;;1.02;0.93;;;20.90;62.60;;;;;;5067344;28;20521;-57
2022/06/10 10:33:00;;;;;;;0.80;0.80;;;20.90;62.40;;;;;;5062778;28;20088;-58
2022/06/10 10:35:53;;;;;;;2.25;1.10;;;20.90;63.00;;;;;;5073483;28;20025;-57
2022/06/10 10:38:30;;;;;;;1.20;1.10;;;20.90;62.60;;;;;;5042614;28;20441;-58
2022/06/10 10:40:56;;;;;;;1.60;1.10;;;20.90;62.50;;;;;;5056869;28;20032;-59
2022/06/10 10:43:25;;;;;;;1.73;1.10;;;20.90;62.30;;;;;;5064401;28;20032;-57
2022/06/10 10:46:03;;;;;;;1.15;0.88;;;20.90;62.30;;;;;;5073628;28;20024;-57
2022/06/10 10:48:38;;;;;;;1.92;1.20;;;20.90;62.30;;;;;;5073072;28;20024;-57
2022/06/10 10:51:10;;;;;;;1.35;1.00;;;20.80;62.30;;;;;;5075860;28;20040;-57
2022/06/10 10:53:47;;;;;;;1.40;1.00;;;20.80;62.20;;;;;;5059657;28;20025;-57
2022/06/10 10:56:14;;;;;;;1.42;0.98;;;20.80;62.30;;;;;;5064857;28;20025;-56
2022/06/10 10:58:50;;;;;;;1.00;0.90;;;20.80;62.30;;;;;;5078400;28;20029;-58
2022/06/10 11:01:45;;;;;;;1.67;1.10;;;20.80;62.40;;;;;;5056824;28;20037;-55
2022/06/10 11:04:12;;;;;;;1.10;1.00;;;20.80;62.10;;;;;;5056839;28;20025;-55
2022/06/10 11:06:38;;;;;;;2.40;1.05;;;20.80;62.30;;;;;;5044448;28;20029;-55
2022/06/10 11:09:23;;;;;;;2.00;1.10;;;20.80;62.00;;;;;;5051633;28;20083;-58
2022/06/10 11:11:50;;;;;;;1.10;0.80;;;20.80;62.10;;;;;;5050614;28;20063;-58
2022/06/10 11:14:29;;;;;;;1.55;1.00;;;20.70;62.00;;;;;;5057246;28;20052;-57
2022/06/10 11:17:11;;;;;;;1.17;1.08;;;20.70;62.00;;;;;;5044163;28;20048;-56
2022/06/10 11:19:40;;;;;;;1.67;1.08;;;20.70;62.10;;;;;;5063224;28;20031;-57
2022/06/10 11:22:26;;;;;;;1.13;1.02;;;20.70;62.30;;;;;;5074846;28;20033;-58
2022/06/10 11:24:53;;;;;;;1.00;0.90;;;20.70;62.10;;;;;;5062401;28;20045;-55
2022/06/10 11:27:31;;;;;;;1.08;0.95;;;20.70;62.10;;;;;;5054452;28;20030;-57
2022/06/10 11:30:20;;;;;;;1.40;0.93;;;20.60;62.10;;;;;;5038536;28;20064;-56
2022/06/10 11:32:49;;;;;;;2.35;0.90;;;20.60;62.10;;;;;;5038158;28;20045;-56
2022/06/10 11:35:33;;;;;;;0.98;0.90;;;20.60;62.10;;;;;;5044310;28;20020;-55
2022/06/10 11:38:30;;;;;;;0.80;0.80;;;20.60;62.00;;;;;;5062430;28;20116;-56
2022/06/10 11:40:58;;;;;;;1.10;1.00;;;20.60;62.00;;;;;;5041917;28;20037;-57
2022/06/10 11:43:35;;;;;;;1.10;1.00;;;20.60;62.00;;;;;;5039178;28;20416;-57
2022/06/10 11:46:05;;;;;;;0.90;0.90;;;20.60;62.00;;;;;;5054435;28;20071;-57
2022/06/10 11:48:47;;;;;;;0.95;0.93;;;20.60;62.10;;;;;;5046224;28;20026;-57
2022/06/10 11:51:29;;;;;;;1.20;1.10;;;20.60;62.80;;;;;;5046950;28;20037;-57
2022/06/10 11:54:00;;;;;;;0.93;0.93;;;20.60;62.10;;;;;;5047434;28;20022;-56
2022/06/10 11:59:45;;;;;;;1.45;1.08;;;20.60;62.20;;;;;;5052035;28;20486;-57
2022/06/10 12:02:22;;;;;;;1.10;1.08;;;20.50;62.10;;;;;;5027805;28;20025;-55
2022/06/10 12:04:57;;;;;;;1.00;0.90;;;20.50;62.00;;;;;;5022129;28;20030;-55
2022/06/10 12:07:23;;;;;;;1.25;1.05;;;20.50;62.10;;;;;;5057239;28;20104;-55
2022/06/10 12:09:55;;;;;;;1.40;0.98;;;20.50;62.10;;;;;;5062420;28;20124;-56
2022/06/10 12:12:23;;;;;;;2.08;1.20;;;20.50;62.10;;;;;;5034755;28;20110;-57
2022/06/10 12:14:54;;;;;;;1.20;1.10;;;20.50;62.20;;;;;;5050542;28;20032;-57
2022/06/10 12:17:37;;;;;;;0.88;0.88;;;20.40;62.20;;;;;;5043355;28;20052;-54
2022/06/10 12:20:14;;;;;;;1.23;0.80;;;20.40;62.20;;;;;;5041660;28;20021;-56
2022/06/10 12:22:40;;;;;;;1.00;0.90;;;20.40;62.30;;;;;;5052968;28;20080;-56
2022/06/10 12:25:19;;;;;;;1.10;0.88;;;20.40;62.30;;;;;;5078767;28;20044;-57
2022/06/10 12:28:06;;;;;;;1.00;1.00;;;20.40;62.30;;;;;;5069276;28;20024;-57
2022/06/10 12:30:37;;;;;;;2.30;0.80;;;20.40;62.20;;;;;;5064582;28;20040;-55
2022/06/10 12:33:18;;;;;;;0.93;0.93;;;20.40;62.30;;;;;;5042531;28;20012;-57
2022/06/10 12:35:44;;;;;;;0.80;0.80;;;20.40;62.60;;;;;;5081166;28;20048;-57
2022/06/10 12:38:20;;;;;;;1.05;0.80;;;20.40;62.60;;;;;;5070550;28;20025;-53
2022/06/10 12:40:53;;;;;;;0.80;0.80;;;20.40;62.80;;;;;;5075604;28;20029;-57
2022/06/10 12:43:27;;;;;;;1.00;0.90;;;20.40;63.00;;;;;;5063162;28;20477;-57
2022/06/10 12:45:55;;;;;;;1.23;0.80;;;20.40;62.70;;;;;;5064530;28;20029;-55
2022/06/10 12:48:32;;;;;;;1.17;1.08;;;20.40;62.70;;;;;;5065063;28;20097;-57
2022/06/10 12:51:13;;;;;;;0.77;0.77;;;20.40;62.40;;;;;;5078194;28;20093;-57
2022/06/10 12:53:57;;;;;;;0.90;0.90;;;20.40;62.60;;;;;;5080013;28;20024;-55
2022/06/10 12:56:32;;;;;;;0.90;0.90;;;20.40;62.50;;;;;;5070215;28;20037;-56
2022/06/10 12:58:58;;;;;;;1.50;1.10;;;20.40;62.60;;;;;;5083031;28;20031;-56
2022/06/10 13:01:27;;;;;;;0.90;0.90;;;20.40;62.60;;;;;;5093062;28;20040;-58
2022/06/10 13:03:57;;;;;;;1.10;0.90;;;20.40;62.60;;;;;;5093979;28;20082;-56
2022/06/10 13:06:28;;;;;;;1.88;0.90;;;20.40;62.70;;;;;;5098932;28;20039;-55
2022/06/10 13:08:57;;;;;;;0.90;0.90;;;20.40;62.70;;;;;;5090636;28;20048;-56
2022/06/10 13:11:32;;;;;;;0.90;0.90;;;20.40;62.80;;;;;;5075478;28;20063;-57
2022/06/10 13:14:22;;;;;;;1.10;1.00;;;20.40;62.90;;;;;;5064589;28;20025;-57
2022/06/10 13:17:07;;;;;;;1.15;1.05;;;20.40;62.90;;;;;;5093455;28;20032;-57
2022/06/10 13:19:51;;;;;;;1.02;0.93;;;20.40;62.90;;;;;;5100564;28;20127;-57
2022/06/10 13:22:17;;;;;;;1.30;0.80;;;20.40;63.00;;;;;;5093471;28;20574;-58
2022/06/10 13:25:04;;;;;;;1.30;0.90;;;20.40;63.20;;;;;;5065338;28;20117;-55
2022/06/10 13:27:44;;;;;;;1.13;0.80;;;20.40;63.40;;;;;;5063062;28;20048;-57
2022/06/10 13:30:24;;;;;;;1.30;1.02;;;20.40;63.80;;;;;;5066826;28;20044;-56
2022/06/10 13:33:01;;;;;;;0.90;0.80;;;20.40;64.00;;;;;;5076298;28;20035;-55